createdAt,value
2023-10-29T00:00:09.417Z,30.80
2023-10-29T00:03:00.696Z,34.50
2023-10-29T00:05:28.893Z,32.20
2023-10-29T00:07:56.808Z,31.20
2023-10-29T00:10:24.844Z,35.30
2023-10-29T00:12:52.776Z,34.40
2023-10-29T00:15:20.908Z,29.40
2023-10-29T00:17:49.298Z,31.40
2023-10-29T00:20:17.312Z,30.80
2023-10-29T00:22:45.238Z,33.70
2023-10-29T00:25:13.216Z,32.60
2023-10-29T00:27:41.065Z,31.70
2023-10-29T00:30:09.594Z,30.30
2023-10-29T00:32:37.622Z,30.40
2023-10-29T00:35:06.213Z,30.50
2023-10-29T00:37:34.139Z,31.90
2023-10-29T00:40:03.380Z,32.30
2023-10-29T00:42:31.381Z,33.30
2023-10-29T00:44:59.316Z,31.10
2023-10-29T00:47:27.497Z,32.40
2023-10-29T00:49:55.668Z,32.10
2023-10-29T00:52:23.563Z,30.10
2023-10-29T00:54:51.780Z,31.60
2023-10-29T00:57:20.535Z,30.60
2023-10-29T00:59:49.081Z,32.00
2023-10-29T01:02:17.130Z,31.40
2023-10-29T01:04:46.434Z,30.90
2023-10-29T01:07:14.675Z,28.70
2023-10-29T01:09:43.338Z,31.50
2023-10-29T01:12:18.162Z,31.70
2023-10-29T01:14:46.786Z,31.90
2023-10-29T01:17:17.317Z,28.80
2023-10-29T01:19:45.270Z,30.80
2023-10-29T01:22:13.249Z,29.50
2023-10-29T01:24:41.483Z,30.70
2023-10-29T01:27:11.209Z,30.60
2023-10-29T01:29:39.472Z,28.50
2023-10-29T01:32:07.659Z,28.60
2023-10-29T01:34:35.735Z,29.40
2023-10-29T01:37:04.630Z,27.30
2023-10-29T01:39:32.605Z,31.00
2023-10-29T01:42:00.560Z,28.40
2023-10-29T01:44:28.491Z,27.70
2023-10-29T01:46:56.430Z,26.40
2023-10-29T01:49:24.317Z,26.60
2023-10-29T01:51:52.237Z,25.10
2023-10-29T01:54:20.153Z,23.80
2023-10-29T01:56:48.076Z,24.70
2023-10-29T01:59:16.340Z,24.20
2023-10-29T02:01:44.499Z,24.50
2023-10-29T02:04:12.776Z,23.60
2023-10-29T02:06:41.151Z,23.70
2023-10-29T02:09:10.691Z,23.50
2023-10-29T02:11:40.252Z,23.60
2023-10-29T02:14:08.752Z,21.60
2023-10-29T02:16:38.382Z,20.50
2023-10-29T02:19:06.448Z,21.00
2023-10-29T02:21:36.004Z,21.30
2023-10-29T02:24:04.404Z,21.00
2023-10-29T02:26:32.395Z,20.30
2023-10-29T02:29:01.510Z,20.30
2023-10-29T02:31:29.453Z,20.60
2023-10-29T02:33:57.391Z,19.90
2023-10-29T02:36:25.233Z,19.20
2023-10-29T02:38:53.111Z,19.70
2023-10-29T02:41:22.046Z,21.30
2023-10-29T02:43:50.601Z,19.70
2023-10-29T02:46:19.668Z,19.20
2023-10-29T02:48:47.709Z,18.60
2023-10-29T02:51:15.622Z,19.50
2023-10-29T02:53:43.608Z,18.80
2023-10-29T02:56:11.635Z,17.90
2023-10-29T02:58:39.598Z,17.70
2023-10-29T03:01:09.921Z,18.10
2023-10-29T03:03:39.053Z,17.70
2023-10-29T03:06:09.224Z,18.80
2023-10-29T03:08:37.843Z,19.10
2023-10-29T03:11:05.922Z,19.00
2023-10-29T03:13:33.835Z,17.40
2023-10-29T03:16:01.894Z,18.50
2023-10-29T03:18:30.810Z,18.10
2023-10-29T03:20:58.988Z,17.90
2023-10-29T03:23:26.997Z,17.00
2023-10-29T03:26:03.365Z,16.50
2023-10-29T03:28:31.295Z,17.30
2023-10-29T03:30:59.711Z,17.10
2023-10-29T03:33:28.100Z,18.70
2023-10-29T03:35:56.120Z,17.10
2023-10-29T03:38:24.037Z,15.90
2023-10-29T03:40:52.025Z,15.40
2023-10-29T03:43:19.946Z,16.40
2023-10-29T03:45:48.044Z,15.90
2023-10-29T03:48:16.829Z,16.00
2023-10-29T03:50:45.047Z,15.80
2023-10-29T03:53:12.957Z,16.60
2023-10-29T03:55:41.032Z,16.10
2023-10-29T03:58:08.949Z,16.50
2023-10-29T04:00:36.858Z,15.30
2023-10-29T04:03:04.853Z,15.50
2023-10-29T04:05:36.011Z,15.70
2023-10-29T04:08:04.435Z,16.10
2023-10-29T04:10:32.352Z,15.50
2023-10-29T04:13:00.648Z,14.90
2023-10-29T04:15:28.663Z,15.60
2023-10-29T04:17:56.801Z,15.00
2023-10-29T04:20:24.672Z,14.90
2023-10-29T04:22:52.647Z,15.90
2023-10-29T04:25:20.506Z,13.70
2023-10-29T04:27:48.479Z,15.90
2023-10-29T04:30:16.549Z,15.90
2023-10-29T04:32:44.728Z,15.30
2023-10-29T04:35:12.696Z,15.20
2023-10-29T04:37:40.636Z,14.90
2023-10-29T04:40:09.878Z,16.30
2023-10-29T04:42:37.811Z,16.10
2023-10-29T04:45:06.252Z,17.20
2023-10-29T04:47:34.319Z,18.10
2023-10-29T04:50:02.899Z,22.50
2023-10-29T04:52:30.807Z,22.10
2023-10-29T04:54:58.791Z,21.10
2023-10-29T04:57:26.697Z,20.90
2023-10-29T04:59:54.826Z,21.50
2023-10-29T05:02:23.973Z,18.30
2023-10-29T05:04:52.255Z,18.40
2023-10-29T05:07:20.874Z,18.10
2023-10-29T05:09:48.949Z,18.00
2023-10-29T05:12:16.829Z,19.70
2023-10-29T05:14:44.831Z,18.40
2023-10-29T05:17:12.725Z,17.60
2023-10-29T05:19:40.802Z,17.40
2023-10-29T05:22:08.984Z,17.20
2023-10-29T05:24:36.986Z,16.10
2023-10-29T05:27:04.993Z,16.50
2023-10-29T05:29:34.118Z,17.20
2023-10-29T05:32:02.300Z,17.60
2023-10-29T05:34:30.264Z,17.40
2023-10-29T05:36:58.240Z,17.30
2023-10-29T05:39:26.204Z,16.50
2023-10-29T05:41:54.620Z,16.30
2023-10-29T05:44:22.628Z,16.80
2023-10-29T05:46:50.506Z,15.90
2023-10-29T05:49:18.370Z,15.90
2023-10-29T05:51:46.296Z,14.90
2023-10-29T05:54:14.236Z,14.90
2023-10-29T05:56:42.262Z,15.00
2023-10-29T05:59:10.573Z,15.70
2023-10-29T06:01:39.802Z,15.30
2023-10-29T06:04:08.000Z,15.30
2023-10-29T06:06:36.090Z,14.40
2023-10-29T06:09:13.318Z,15.40
2023-10-29T06:11:45.450Z,15.70
2023-10-29T06:14:13.389Z,14.80
2023-10-29T06:16:41.262Z,15.00
2023-10-29T06:19:09.692Z,14.00
2023-10-29T06:21:37.990Z,14.40
2023-10-29T06:24:07.750Z,14.30
2023-10-29T06:26:36.030Z,13.70
2023-10-29T06:29:04.170Z,14.80
2023-10-29T06:31:34.261Z,14.10
2023-10-29T06:34:03.364Z,14.30
2023-10-29T06:36:31.285Z,13.70
2023-10-29T06:39:00.596Z,15.50
2023-10-29T06:41:28.813Z,14.00
2023-10-29T06:43:57.258Z,14.00
2023-10-29T06:46:25.831Z,13.70
2023-10-29T06:48:53.896Z,14.10
2023-10-29T06:51:22.050Z,14.50
2023-10-29T06:53:50.138Z,13.50
2023-10-29T06:56:18.112Z,13.10
2023-10-29T06:58:46.177Z,13.70
2023-10-29T07:01:14.831Z,13.40
2023-10-29T07:03:43.883Z,13.50
2023-10-29T07:06:15.257Z,13.60
2023-10-29T07:08:46.405Z,15.10
2023-10-29T07:11:14.585Z,15.30
2023-10-29T07:13:43.431Z,15.70
2023-10-29T07:16:11.887Z,16.40
2023-10-29T07:18:40.377Z,17.90
2023-10-29T07:21:08.389Z,17.70
2023-10-29T07:23:36.347Z,20.40
2023-10-29T07:26:04.457Z,19.10
2023-10-29T07:28:32.387Z,19.60
2023-10-29T07:31:00.438Z,20.70
2023-10-29T07:33:28.463Z,21.60
2023-10-29T07:35:56.560Z,21.20
2023-10-29T07:38:24.712Z,20.90
2023-10-29T07:40:52.800Z,20.70
2023-10-29T07:43:20.748Z,21.00
2023-10-29T07:45:53.017Z,20.20
2023-10-29T07:48:22.694Z,19.70
2023-10-29T07:50:52.403Z,19.40
2023-10-29T07:53:20.482Z,19.80
2023-10-29T07:55:48.443Z,17.30
2023-10-29T07:58:16.682Z,17.40
2023-10-29T08:00:44.986Z,16.80
2023-10-29T08:03:14.081Z,15.50
2023-10-29T08:05:43.189Z,15.50
2023-10-29T08:08:11.182Z,16.30
2023-10-29T08:10:39.172Z,15.10
2023-10-29T08:13:10.657Z,14.90
2023-10-29T08:15:38.903Z,14.50
2023-10-29T08:18:07.760Z,13.90
2023-10-29T08:20:36.199Z,12.90
2023-10-29T08:23:04.223Z,12.50
2023-10-29T08:25:32.341Z,12.10
2023-10-29T08:28:00.320Z,12.20
2023-10-29T08:30:28.327Z,10.70
2023-10-29T08:32:57.432Z,10.70
2023-10-29T08:35:25.709Z,10.90
2023-10-29T08:37:54.337Z,10.30
2023-10-29T08:40:22.880Z,10.00
2023-10-29T08:42:50.892Z,10.00
2023-10-29T08:45:31.020Z,10.70
2023-10-29T08:48:09.090Z,9.60
2023-10-29T08:50:37.224Z,9.50
2023-10-29T08:53:05.169Z,10.50
2023-10-29T08:55:36.894Z,10.30
2023-10-29T08:58:04.789Z,9.80
2023-10-29T09:00:45.365Z,9.40
2023-10-29T09:03:16.306Z,9.80
2023-10-29T09:05:45.229Z,9.00
2023-10-29T09:08:13.609Z,10.20
2023-10-29T09:10:44.410Z,8.90
2023-10-29T09:13:12.778Z,8.50
2023-10-29T09:15:41.450Z,8.30
2023-10-29T09:18:09.847Z,9.00
2023-10-29T09:20:39.609Z,8.40
2023-10-29T09:23:07.621Z,7.90
2023-10-29T09:25:35.602Z,8.10
2023-10-29T09:28:06.807Z,7.40
2023-10-29T09:30:34.928Z,8.40
2023-10-29T09:33:03.093Z,7.70
2023-10-29T09:35:31.770Z,7.10
2023-10-29T09:37:59.738Z,7.40
2023-10-29T09:40:27.748Z,6.80
2023-10-29T09:43:00.860Z,7.30
2023-10-29T09:45:29.647Z,6.70
2023-10-29T09:48:00.991Z,6.60
2023-10-29T09:50:29.101Z,6.30
2023-10-29T09:52:59.583Z,6.50
2023-10-29T09:55:29.223Z,5.80
2023-10-29T09:57:58.199Z,6.20
2023-10-29T10:00:27.149Z,5.60
2023-10-29T10:02:58.117Z,5.70
2023-10-29T10:05:29.772Z,5.30
2023-10-29T10:07:58.271Z,4.90
2023-10-29T10:10:42.365Z,5.00
2023-10-29T10:13:12.132Z,5.10
2023-10-29T10:15:40.604Z,4.10
2023-10-29T10:18:08.725Z,4.50
2023-10-29T10:20:37.517Z,3.40
2023-10-29T10:23:10.445Z,3.60
2023-10-29T10:25:39.406Z,3.60
2023-10-29T10:28:08.170Z,3.90
2023-10-29T10:30:39.924Z,3.50
2023-10-29T10:33:12.945Z,3.50
2023-10-29T10:35:44.251Z,3.40
2023-10-29T10:38:17.113Z,3.40
2023-10-29T10:43:20.671Z,3.20
2023-10-29T10:45:52.332Z,2.80
2023-10-29T10:48:21.364Z,3.30
2023-10-29T10:50:52.406Z,3.60
2023-10-29T10:53:20.610Z,3.80
2023-10-29T10:56:02.222Z,2.80
2023-10-29T11:01:02.027Z,3.50
2023-10-29T11:03:34.351Z,2.90
2023-10-29T11:06:04.209Z,3.30
2023-10-29T11:08:32.431Z,2.80
2023-10-29T11:11:01.812Z,3.00
2023-10-29T11:13:30.300Z,3.70
2023-10-29T11:15:58.335Z,3.10
2023-10-29T11:18:33.241Z,3.60
2023-10-29T11:21:05.021Z,3.10
2023-10-29T11:23:34.402Z,2.40
2023-10-29T11:26:24.207Z,2.60
2023-10-29T11:28:56.485Z,3.40
2023-10-29T11:31:26.380Z,3.90
2023-10-29T11:33:57.602Z,3.00
2023-10-29T11:36:39.108Z,2.90
2023-10-29T11:39:16.479Z,3.00
2023-10-29T11:41:47.004Z,3.70
2023-10-29T11:44:31.582Z,3.70
2023-10-29T11:46:59.737Z,2.70
2023-10-29T11:49:29.406Z,2.90
2023-10-29T11:52:03.183Z,3.00
2023-10-29T11:54:33.806Z,2.80
2023-10-29T11:57:05.570Z,2.70
2023-10-29T11:59:34.022Z,2.90
2023-10-29T12:02:02.062Z,3.00
2023-10-29T12:04:31.618Z,2.60
2023-10-29T12:07:00.745Z,3.30
2023-10-29T12:09:28.855Z,2.90
2023-10-29T12:11:57.319Z,2.80
2023-10-29T12:14:45.224Z,2.80
2023-10-29T12:17:15.362Z,3.00
2023-10-29T12:19:46.560Z,2.40
2023-10-29T12:25:05.235Z,2.90
2023-10-29T12:27:35.491Z,2.80
2023-10-29T12:30:10.283Z,2.90
2023-10-29T12:32:38.648Z,2.60
2023-10-29T12:35:07.976Z,2.40
2023-10-29T12:37:36.475Z,2.60
2023-10-29T12:40:06.654Z,5.60
2023-10-29T12:42:53.667Z,2.50
2023-10-29T12:45:33.135Z,12.30
2023-10-29T12:48:17.341Z,5.00
2023-10-29T12:50:53.245Z,2.50
2023-10-29T12:53:30.183Z,2.90
2023-10-29T12:56:02.757Z,2.50
2023-10-29T12:58:33.837Z,2.60
2023-10-29T13:01:03.885Z,2.30
2023-10-29T13:03:32.344Z,2.90
2023-10-29T13:06:00.565Z,2.70
2023-10-29T13:08:28.706Z,2.50
2023-10-29T13:10:57.466Z,5.60
2023-10-29T13:13:26.521Z,3.10
2023-10-29T13:15:54.510Z,4.30
2023-10-29T13:18:22.769Z,38.40
2023-10-29T13:21:03.389Z,3.70
2023-10-29T13:23:31.513Z,3.40
2023-10-29T13:25:59.432Z,3.00
2023-10-29T13:28:27.351Z,2.60
2023-10-29T13:30:56.279Z,3.40
2023-10-29T13:33:25.537Z,2.60
2023-10-29T13:35:53.850Z,3.10
2023-10-29T13:38:22.036Z,4.90
2023-10-29T13:40:50.076Z,3.10
2023-10-29T13:43:24.134Z,3.20
2023-10-29T13:46:04.020Z,3.40
2023-10-29T13:48:32.536Z,4.30
2023-10-29T13:51:06.243Z,3.20
2023-10-29T13:53:34.596Z,3.10
2023-10-29T13:56:10.911Z,41.80
2023-10-29T13:58:41.372Z,6.50
2023-10-29T14:01:23.881Z,5.00
2023-10-29T14:03:53.514Z,3.10
2023-10-29T14:06:24.606Z,4.30
2023-10-29T14:08:52.904Z,6.50
2023-10-29T14:11:21.360Z,2.80
2023-10-29T14:13:51.046Z,3.40
2023-10-29T14:16:19.659Z,4.20
2023-10-29T14:18:59.038Z,3.10
2023-10-29T14:21:30.966Z,3.10
2023-10-29T14:23:59.250Z,3.20
2023-10-29T14:26:27.244Z,3.60
2023-10-29T14:28:56.029Z,3.20
2023-10-29T14:31:24.146Z,3.30
2023-10-29T14:33:52.141Z,3.90
2023-10-29T14:36:25.665Z,3.60
2023-10-29T14:38:53.608Z,3.90
2023-10-29T14:41:21.576Z,4.00
2023-10-29T14:43:49.517Z,24.30
2023-10-29T14:46:17.428Z,3.80
2023-10-29T14:48:45.366Z,4.10
2023-10-29T14:51:13.500Z,3.90
2023-10-29T14:53:41.374Z,3.90
2023-10-29T14:56:09.484Z,4.10
2023-10-29T14:58:37.728Z,3.90
2023-10-29T15:01:09.087Z,3.50
2023-10-29T15:03:37.308Z,4.70
2023-10-29T15:06:12.132Z,3.80
2023-10-29T15:08:40.606Z,3.80
2023-10-29T15:11:08.596Z,4.40
2023-10-29T15:13:45.904Z,3.60
2023-10-29T15:16:14.922Z,3.40
2023-10-29T15:18:42.963Z,4.00
2023-10-29T15:21:15.507Z,3.80
2023-10-29T15:23:43.471Z,4.10
2023-10-29T15:26:17.711Z,4.10
2023-10-29T15:28:48.006Z,4.30
2023-10-29T15:31:16.440Z,3.70
2023-10-29T15:33:45.068Z,4.20
2023-10-29T15:36:13.257Z,4.00
2023-10-29T15:38:42.745Z,4.30
2023-10-29T15:41:11.086Z,4.70
2023-10-29T15:43:39.344Z,4.20
2023-10-29T15:46:09.528Z,4.30
2023-10-29T15:48:38.670Z,4.30
2023-10-29T15:51:09.637Z,4.80
2023-10-29T15:53:40.497Z,3.90
2023-10-29T15:56:11.858Z,5.40
2023-10-29T15:58:39.901Z,4.30
2023-10-29T16:01:19.536Z,3.90
2023-10-29T16:03:48.684Z,4.90
2023-10-29T16:06:16.636Z,4.40
2023-10-29T16:08:44.622Z,4.50
2023-10-29T16:11:23.490Z,4.50
2023-10-29T16:13:51.663Z,5.40
2023-10-29T16:16:20.975Z,5.00
2023-10-29T16:18:49.081Z,5.20
2023-10-29T16:21:17.110Z,4.90
2023-10-29T16:23:45.237Z,4.40
2023-10-29T16:26:13.163Z,5.00
2023-10-29T16:28:41.160Z,4.80
2023-10-29T16:31:09.018Z,5.20
2023-10-29T16:33:37.076Z,4.40
2023-10-29T16:36:05.972Z,4.90
2023-10-29T16:38:33.927Z,13.20
2023-10-29T16:41:05.295Z,5.50
2023-10-29T16:43:33.322Z,34.70
2023-10-29T16:46:01.697Z,10.20
2023-10-29T16:48:29.671Z,5.70
2023-10-29T16:51:03.293Z,5.40
2023-10-29T16:53:31.976Z,6.00
2023-10-29T16:56:08.030Z,5.00
2023-10-29T16:58:36.429Z,5.80
2023-10-29T17:01:04.737Z,5.30
2023-10-29T17:03:32.938Z,5.30
2023-10-29T17:06:05.025Z,5.60
2023-10-29T17:08:32.964Z,6.30
2023-10-29T17:11:00.955Z,5.90
2023-10-29T17:13:28.994Z,5.90
2023-10-29T17:16:03.196Z,6.00
2023-10-29T17:18:32.127Z,17.60
2023-10-29T17:21:01.839Z,6.70
2023-10-29T17:23:29.925Z,5.40
2023-10-29T17:25:58.227Z,6.80
2023-10-29T17:28:26.853Z,5.60
2023-10-29T17:30:55.359Z,5.70
2023-10-29T17:33:23.429Z,6.20
2023-10-29T17:35:51.529Z,5.70
2023-10-29T17:38:19.472Z,5.30
2023-10-29T17:40:47.356Z,5.00
2023-10-29T17:43:15.473Z,5.40
2023-10-29T17:45:44.871Z,5.90
2023-10-29T17:48:14.109Z,5.30
2023-10-29T17:50:42.962Z,6.70
2023-10-29T17:53:11.279Z,5.70
2023-10-29T17:55:39.347Z,6.50
2023-10-29T17:58:07.267Z,5.10
2023-10-29T18:00:35.169Z,5.30
2023-10-29T18:03:03.278Z,5.00
2023-10-29T18:05:31.321Z,5.70
2023-10-29T18:07:59.258Z,4.80
2023-10-29T18:10:27.258Z,5.30
2023-10-29T18:12:55.152Z,6.00
2023-10-29T18:15:23.120Z,4.80
2023-10-29T18:17:51.055Z,5.50
2023-10-29T18:20:19.032Z,5.40
2023-10-29T18:22:48.183Z,5.20
2023-10-29T18:25:16.212Z,5.30
2023-10-29T18:27:44.122Z,4.60
2023-10-29T18:30:14.083Z,5.90
2023-10-29T18:32:42.671Z,5.20
2023-10-29T18:35:10.631Z,5.80
2023-10-29T18:37:38.602Z,5.20
2023-10-29T18:40:07.737Z,5.50
2023-10-29T18:42:35.609Z,5.20
2023-10-29T18:45:04.113Z,5.20
2023-10-29T18:47:32.139Z,5.20
2023-10-29T18:50:03.939Z,5.60
2023-10-29T18:52:32.974Z,5.60
2023-10-29T18:55:00.881Z,6.40
2023-10-29T18:57:28.991Z,6.00
2023-10-29T18:59:57.409Z,5.20
2023-10-29T19:02:25.495Z,18.70
2023-10-29T19:04:53.403Z,6.20
2023-10-29T19:07:21.336Z,5.20
2023-10-29T19:09:50.633Z,5.50
2023-10-29T19:12:18.645Z,5.20
2023-10-29T19:14:47.200Z,5.20
2023-10-29T19:17:15.204Z,5.40
2023-10-29T19:19:43.116Z,5.00
2023-10-29T19:22:12.621Z,4.90
2023-10-29T19:24:40.722Z,4.90
2023-10-29T19:27:09.818Z,4.60
2023-10-29T19:29:37.809Z,5.10
2023-10-29T19:32:06.189Z,5.40
2023-10-29T19:34:34.139Z,23.00
2023-10-29T19:37:02.114Z,4.80
2023-10-29T19:39:31.078Z,5.30
2023-10-29T19:41:59.109Z,4.80
2023-10-29T19:44:27.094Z,4.50
2023-10-29T19:46:57.161Z,4.40
2023-10-29T19:49:24.977Z,4.60
2023-10-29T19:51:52.912Z,4.60
2023-10-29T19:54:20.836Z,4.50
2023-10-29T19:56:48.763Z,4.70
2023-10-29T19:59:16.694Z,5.10
2023-10-29T20:01:44.631Z,5.70
2023-10-29T20:04:12.962Z,4.20
2023-10-29T20:06:41.079Z,4.50
2023-10-29T20:09:11.602Z,4.30
2023-10-29T20:11:40.404Z,3.80
2023-10-29T20:14:09.478Z,4.10
2023-10-29T20:16:37.762Z,3.70
2023-10-29T20:19:05.992Z,4.10
2023-10-29T20:21:34.039Z,3.90
2023-10-29T20:24:03.666Z,4.40
2023-10-29T20:26:31.795Z,5.30
2023-10-29T20:28:59.766Z,5.00
2023-10-29T20:31:27.744Z,4.50
2023-10-29T20:33:55.785Z,4.50
2023-10-29T20:36:25.354Z,5.00
2023-10-29T20:38:53.268Z,4.90
2023-10-29T20:41:21.308Z,15.60
2023-10-29T20:43:49.507Z,6.90
2023-10-29T20:46:17.585Z,6.00
2023-10-29T20:48:47.646Z,5.40
2023-10-29T20:51:15.649Z,5.10
2023-10-29T20:53:43.596Z,5.30
2023-10-29T20:56:14.281Z,4.90
2023-10-29T20:58:42.267Z,4.10
2023-10-29T21:01:10.297Z,4.80
2023-10-29T21:03:38.470Z,4.50
2023-10-29T21:06:06.794Z,4.20
2023-10-29T21:08:34.662Z,3.90
2023-10-29T21:11:09.579Z,5.60
2023-10-29T21:13:37.664Z,23.20
2023-10-29T21:16:08.974Z,4.70
2023-10-29T21:18:37.102Z,3.70
2023-10-29T21:21:05.363Z,12.70
2023-10-29T21:23:33.389Z,7.30
2023-10-29T21:26:01.192Z,3.70
2023-10-29T21:28:29.225Z,5.30
2023-10-29T21:30:57.422Z,5.80
2023-10-29T21:33:25.608Z,5.70
2023-10-29T21:35:53.597Z,3.50
2023-10-29T21:38:22.014Z,3.30
2023-10-29T21:40:50.106Z,3.60
2023-10-29T21:43:18.026Z,3.50
2023-10-29T21:45:46.051Z,3.60
2023-10-29T21:48:14.099Z,6.80
2023-10-29T21:50:42.556Z,4.10
2023-10-29T21:53:11.376Z,7.40
2023-10-29T21:55:39.411Z,4.00
2023-10-29T21:58:10.060Z,4.20
2023-10-29T22:00:38.329Z,3.60
2023-10-29T22:03:07.873Z,7.10
2023-10-29T22:05:35.921Z,21.90
2023-10-29T22:08:05.411Z,5.30
2023-10-29T22:10:33.571Z,5.30
2023-10-29T22:13:01.531Z,4.60
2023-10-29T22:15:29.526Z,4.40
2023-10-29T22:17:57.679Z,4.50
2023-10-29T22:20:26.825Z,4.60
2023-10-29T22:22:55.034Z,7.00
2023-10-29T22:25:23.026Z,5.10
2023-10-29T22:27:51.081Z,4.20
2023-10-29T22:30:19.233Z,5.20
2023-10-29T22:32:47.164Z,4.80
2023-10-29T22:35:15.319Z,4.70
2023-10-29T22:37:43.300Z,5.10
2023-10-29T22:40:12.805Z,5.10
2023-10-29T22:42:40.861Z,15.30
2023-10-29T22:45:09.332Z,8.50
2023-10-29T22:47:40.180Z,5.70
2023-10-29T22:50:08.647Z,5.00
2023-10-29T22:52:36.780Z,5.60
2023-10-29T22:55:05.149Z,6.00
2023-10-29T22:57:33.171Z,5.30
2023-10-29T23:00:01.208Z,5.20
2023-10-29T23:02:29.636Z,5.80
2023-10-29T23:04:57.701Z,6.10
2023-10-29T23:07:26.421Z,6.10
2023-10-29T23:09:56.980Z,5.90
2023-10-29T23:12:27.514Z,5.20
2023-10-29T23:14:55.676Z,5.80
2023-10-29T23:17:26.264Z,6.40
2023-10-29T23:19:54.353Z,8.20
2023-10-29T23:22:22.386Z,12.50
2023-10-29T23:24:50.378Z,15.30
2023-10-29T23:27:18.350Z,13.50
2023-10-29T23:29:47.153Z,10.60
2023-10-29T23:32:15.276Z,9.50
2023-10-29T23:34:43.243Z,9.30
2023-10-29T23:37:11.468Z,7.40
2023-10-29T23:39:39.444Z,10.30
2023-10-29T23:42:07.569Z,17.60
2023-10-29T23:44:35.477Z,8.10
2023-10-29T23:47:03.930Z,5.90
2023-10-29T23:49:31.945Z,5.10
2023-10-29T23:52:00.098Z,5.40
2023-10-29T23:54:28.131Z,5.00
2023-10-29T23:56:56.152Z,5.50
2023-10-29T23:59:24.252Z,4.90
